sensor_id;sensor_type;location;lat;lon;timestamp;P1;durP1;ratioP1;P2;durP2;ratioP2
7989;SDS011;4040;42.848;23.034;2022-10-31T00:05:27;6.37;;;4.57;;
7989;SDS011;4040;42.848;23.034;2022-10-31T00:11:17;8.10;;;4.50;;
7989;SDS011;4040;42.848;23.034;2022-10-31T00:21:28;11.63;;;5.90;;
7989;SDS011;4040;42.848;23.034;2022-10-31T00:27:19;8.80;;;5.60;;
7989;SDS011;4040;42.848;23.034;2022-10-31T00:33:08;6.07;;;5.20;;
7989;SDS011;4040;42.848;23.034;2022-10-31T00:38:57;7.93;;;5.50;;
7989;SDS011;4040;42.848;23.034;2022-10-31T00:44:48;12.07;;;8.23;;
7989;SDS011;4040;42.848;23.034;2022-10-31T00:50:37;8.43;;;5.60;;
7989;SDS011;4040;42.848;23.034;2022-10-31T00:56:26;7.10;;;4.90;;
7989;SDS011;4040;42.848;23.034;2022-10-31T01:02:16;6.03;;;5.00;;
7989;SDS011;4040;42.848;23.034;2022-10-31T01:08:04;7.33;;;5.37;;
7989;SDS011;4040;42.848;23.034;2022-10-31T01:13:53;8.40;;;5.73;;
7989;SDS011;4040;42.848;23.034;2022-10-31T01:23:56;8.50;;;6.37;;
7989;SDS011;4040;42.848;23.034;2022-10-31T01:29:44;7.97;;;5.40;;
7989;SDS011;4040;42.848;23.034;2022-10-31T01:35:33;8.57;;;5.27;;
7989;SDS011;4040;42.848;23.034;2022-10-31T01:41:24;9.13;;;5.83;;
7989;SDS011;4040;42.848;23.034;2022-10-31T01:47:15;10.63;;;7.63;;
7989;SDS011;4040;42.848;23.034;2022-10-31T01:53:07;12.50;;;7.70;;
7989;SDS011;4040;42.848;23.034;2022-10-31T01:58:59;11.60;;;8.40;;
7989;SDS011;4040;42.848;23.034;2022-10-31T02:04:53;13.20;;;7.43;;
7989;SDS011;4040;42.848;23.034;2022-10-31T02:10:42;11.03;;;7.03;;
7989;SDS011;4040;42.848;23.034;2022-10-31T02:16:33;8.70;;;5.93;;
7989;SDS011;4040;42.848;23.034;2022-10-31T02:26:51;8.63;;;5.73;;
7989;SDS011;4040;42.848;23.034;2022-10-31T02:32:50;10.60;;;6.03;;
7989;SDS011;4040;42.848;23.034;2022-10-31T02:38:56;9.10;;;5.87;;
7989;SDS011;4040;42.848;23.034;2022-10-31T02:44:52;8.47;;;6.63;;
7989;SDS011;4040;42.848;23.034;2022-10-31T02:50:51;8.67;;;6.10;;
7989;SDS011;4040;42.848;23.034;2022-10-31T02:56:43;8.40;;;6.40;;
7989;SDS011;4040;42.848;23.034;2022-10-31T03:02:41;8.37;;;6.53;;
7989;SDS011;4040;42.848;23.034;2022-10-31T03:08:41;9.37;;;6.50;;
7989;SDS011;4040;42.848;23.034;2022-10-31T03:14:39;11.00;;;6.77;;
7989;SDS011;4040;42.848;23.034;2022-10-31T03:20:33;10.50;;;7.03;;
7989;SDS011;4040;42.848;23.034;2022-10-31T03:26:28;9.00;;;6.53;;
7989;SDS011;4040;42.848;23.034;2022-10-31T03:32:19;11.37;;;7.47;;
7989;SDS011;4040;42.848;23.034;2022-10-31T03:38:12;12.60;;;7.97;;
7989;SDS011;4040;42.848;23.034;2022-10-31T03:44:04;12.50;;;8.37;;
7989;SDS011;4040;42.848;23.034;2022-10-31T03:49:59;17.37;;;9.33;;
7989;SDS011;4040;42.848;23.034;2022-10-31T03:55:49;17.93;;;8.57;;
7989;SDS011;4040;42.848;23.034;2022-10-31T04:01:42;16.07;;;9.27;;
7989;SDS011;4040;42.848;23.034;2022-10-31T04:07:36;15.83;;;10.00;;
7989;SDS011;4040;42.848;23.034;2022-10-31T04:13:29;11.73;;;9.20;;
7989;SDS011;4040;42.848;23.034;2022-10-31T04:19:22;15.53;;;9.63;;
7989;SDS011;4040;42.848;23.034;2022-10-31T04:29:33;14.87;;;10.50;;
7989;SDS011;4040;42.848;23.034;2022-10-31T04:35:23;15.43;;;10.13;;
7989;SDS011;4040;42.848;23.034;2022-10-31T04:41:12;12.33;;;10.30;;
7989;SDS011;4040;42.848;23.034;2022-10-31T04:47:00;15.43;;;11.83;;
7989;SDS011;4040;42.848;23.034;2022-10-31T04:52:50;18.07;;;11.50;;
7989;SDS011;4040;42.848;23.034;2022-10-31T04:58:39;15.73;;;11.47;;
7989;SDS011;4040;42.848;23.034;2022-10-31T05:04:28;14.00;;;11.03;;
7989;SDS011;4040;42.848;23.034;2022-10-31T05:10:19;18.90;;;12.00;;
7989;SDS011;4040;42.848;23.034;2022-10-31T05:16:08;18.00;;;13.47;;
7989;SDS011;4040;42.848;23.034;2022-10-31T05:21:57;17.67;;;13.23;;
7989;SDS011;4040;42.848;23.034;2022-10-31T05:32:09;20.23;;;13.87;;
7989;SDS011;4040;42.848;23.034;2022-10-31T05:37:58;25.47;;;14.73;;
7989;SDS011;4040;42.848;23.034;2022-10-31T05:43:46;21.33;;;13.77;;
7989;SDS011;4040;42.848;23.034;2022-10-31T05:49:37;19.23;;;14.27;;
7989;SDS011;4040;42.848;23.034;2022-10-31T05:55:25;19.47;;;12.33;;
7989;SDS011;4040;42.848;23.034;2022-10-31T06:01:14;17.55;;;11.02;;
7989;SDS011;4040;42.848;23.034;2022-10-31T06:07:05;14.70;;;10.57;;
7989;SDS011;4040;42.848;23.034;2022-10-31T06:12:53;16.83;;;10.60;;
7989;SDS011;4040;42.848;23.034;2022-10-31T06:18:42;16.73;;;10.88;;
7989;SDS011;4040;42.848;23.034;2022-10-31T06:24:32;13.90;;;10.48;;
7989;SDS011;4040;42.848;23.034;2022-10-31T06:34:43;15.45;;;8.98;;
7989;SDS011;4040;42.848;23.034;2022-10-31T06:46:43;11.93;;;9.25;;
7989;SDS011;4040;42.848;23.034;2022-10-31T06:52:34;13.05;;;9.60;;
7989;SDS011;4040;42.848;23.034;2022-10-31T06:58:24;15.32;;;9.68;;
7989;SDS011;4040;42.848;23.034;2022-10-31T07:04:13;16.10;;;9.68;;
7989;SDS011;4040;42.848;23.034;2022-10-31T07:10:02;14.85;;;9.57;;
7989;SDS011;4040;42.848;23.034;2022-10-31T07:15:52;12.43;;;9.80;;
7989;SDS011;4040;42.848;23.034;2022-10-31T07:21:42;12.52;;;9.20;;
7989;SDS011;4040;42.848;23.034;2022-10-31T07:27:34;12.40;;;8.70;;
7989;SDS011;4040;42.848;23.034;2022-10-31T07:37:47;12.77;;;9.35;;
7989;SDS011;4040;42.848;23.034;2022-10-31T07:43:36;11.55;;;8.18;;
7989;SDS011;4040;42.848;23.034;2022-10-31T07:49:25;10.45;;;7.93;;
7989;SDS011;4040;42.848;23.034;2022-10-31T07:55:15;9.63;;;8.60;;
7989;SDS011;4040;42.848;23.034;2022-10-31T08:01:04;10.88;;;8.20;;
7989;SDS011;4040;42.848;23.034;2022-10-31T08:06:52;10.18;;;8.55;;
7989;SDS011;4040;42.848;23.034;2022-10-31T08:12:43;11.32;;;8.80;;
7989;SDS011;4040;42.848;23.034;2022-10-31T08:18:31;11.32;;;8.35;;
7989;SDS011;4040;42.848;23.034;2022-10-31T08:24:20;26.38;;;23.52;;
7989;SDS011;4040;42.848;23.034;2022-10-31T08:30:11;11.35;;;9.50;;
7989;SDS011;4040;42.848;23.034;2022-10-31T08:40:22;10.20;;;9.13;;
7989;SDS011;4040;42.848;23.034;2022-10-31T08:46:13;8.85;;;7.40;;
7989;SDS011;4040;42.848;23.034;2022-10-31T08:52:01;11.75;;;7.35;;
7989;SDS011;4040;42.848;23.034;2022-10-31T08:57:53;9.55;;;8.45;;
7989;SDS011;4040;42.848;23.034;2022-10-31T09:03:44;20.35;;;18.40;;
7989;SDS011;4040;42.848;23.034;2022-10-31T09:09:33;10.55;;;7.13;;
7989;SDS011;4040;42.848;23.034;2022-10-31T09:15:22;9.98;;;7.57;;
7989;SDS011;4040;42.848;23.034;2022-10-31T09:21:12;12.50;;;7.60;;
7989;SDS011;4040;42.848;23.034;2022-10-31T09:27:00;12.40;;;6.88;;
7989;SDS011;4040;42.848;23.034;2022-10-31T09:32:54;8.75;;;6.28;;
7989;SDS011;4040;42.848;23.034;2022-10-31T09:43:11;8.23;;;7.22;;
7989;SDS011;4040;42.848;23.034;2022-10-31T09:55:23;9.13;;;5.68;;
7989;SDS011;4040;42.848;23.034;2022-10-31T10:01:34;16.08;;;5.30;;
7989;SDS011;4040;42.848;23.034;2022-10-31T10:07:33;9.05;;;4.65;;
7989;SDS011;4040;42.848;23.034;2022-10-31T10:13:38;10.27;;;4.97;;
7989;SDS011;4040;42.848;23.034;2022-10-31T10:19:53;11.77;;;5.13;;
7989;SDS011;4040;42.848;23.034;2022-10-31T10:26:00;14.55;;;4.95;;
7989;SDS011;4040;42.848;23.034;2022-10-31T10:31:58;11.25;;;4.38;;
7989;SDS011;4040;42.848;23.034;2022-10-31T10:37:52;5.95;;;3.95;;
7989;SDS011;4040;42.848;23.034;2022-10-31T10:43:48;13.10;;;8.60;;
7989;SDS011;4040;42.848;23.034;2022-10-31T10:49:38;12.25;;;6.13;;
7989;SDS011;4040;42.848;23.034;2022-10-31T10:55:36;14.30;;;6.78;;
7989;SDS011;4040;42.848;23.034;2022-10-31T11:01:31;9.27;;;5.18;;
7989;SDS011;4040;42.848;23.034;2022-10-31T11:07:20;5.18;;;3.22;;
7989;SDS011;4040;42.848;23.034;2022-10-31T11:13:22;6.97;;;3.58;;
7989;SDS011;4040;42.848;23.034;2022-10-31T11:19:13;8.70;;;3.78;;
7989;SDS011;4040;42.848;23.034;2022-10-31T11:25:14;5.85;;;4.07;;
7989;SDS011;4040;42.848;23.034;2022-10-31T11:31:12;7.55;;;3.88;;
7989;SDS011;4040;42.848;23.034;2022-10-31T11:37:04;5.57;;;3.30;;
7989;SDS011;4040;42.848;23.034;2022-10-31T11:43:00;5.82;;;3.55;;
7989;SDS011;4040;42.848;23.034;2022-10-31T11:48:51;9.27;;;3.83;;
7989;SDS011;4040;42.848;23.034;2022-10-31T11:54:44;6.22;;;3.50;;
7989;SDS011;4040;42.848;23.034;2022-10-31T12:00:36;4.72;;;3.47;;
7989;SDS011;4040;42.848;23.034;2022-10-31T12:06:30;8.02;;;3.67;;
7989;SDS011;4040;42.848;23.034;2022-10-31T12:18:38;4.72;;;2.72;;
7989;SDS011;4040;42.848;23.034;2022-10-31T12:31:01;5.05;;;3.50;;
7989;SDS011;4040;42.848;23.034;2022-10-31T12:36:58;4.80;;;3.03;;
7989;SDS011;4040;42.848;23.034;2022-10-31T12:42:57;6.47;;;3.08;;
7989;SDS011;4040;42.848;23.034;2022-10-31T12:49:04;7.97;;;4.10;;
7989;SDS011;4040;42.848;23.034;2022-10-31T12:55:09;8.00;;;3.17;;
7989;SDS011;4040;42.848;23.034;2022-10-31T13:01:09;7.85;;;4.07;;
7989;SDS011;4040;42.848;23.034;2022-10-31T13:07:02;10.57;;;4.35;;
7989;SDS011;4040;42.848;23.034;2022-10-31T13:12:57;8.60;;;3.65;;
7989;SDS011;4040;42.848;23.034;2022-10-31T13:18:52;13.93;;;4.38;;
7989;SDS011;4040;42.848;23.034;2022-10-31T13:24:47;8.88;;;2.90;;
7989;SDS011;4040;42.848;23.034;2022-10-31T13:30:41;12.90;;;4.53;;
7989;SDS011;4040;42.848;23.034;2022-10-31T13:36:33;4.88;;;3.35;;
7989;SDS011;4040;42.848;23.034;2022-10-31T13:42:29;13.88;;;3.88;;
7989;SDS011;4040;42.848;23.034;2022-10-31T13:48:39;10.88;;;4.15;;
7989;SDS011;4040;42.848;23.034;2022-10-31T13:54:32;10.60;;;4.55;;
7989;SDS011;4040;42.848;23.034;2022-10-31T14:00:23;7.18;;;3.75;;
7989;SDS011;4040;42.848;23.034;2022-10-31T14:06:14;12.57;;;4.72;;
7989;SDS011;4040;42.848;23.034;2022-10-31T14:12:05;12.15;;;4.68;;
7989;SDS011;4040;42.848;23.034;2022-10-31T14:17:56;7.15;;;3.75;;
7989;SDS011;4040;42.848;23.034;2022-10-31T14:23:48;11.50;;;5.03;;
7989;SDS011;4040;42.848;23.034;2022-10-31T14:29:38;12.07;;;4.68;;
7989;SDS011;4040;42.848;23.034;2022-10-31T14:35:29;20.38;;;7.35;;
7989;SDS011;4040;42.848;23.034;2022-10-31T14:45:55;7.93;;;4.75;;
7989;SDS011;4040;42.848;23.034;2022-10-31T14:51:49;23.50;;;9.25;;
7989;SDS011;4040;42.848;23.034;2022-10-31T14:57:39;21.73;;;10.32;;
7989;SDS011;4040;42.848;23.034;2022-10-31T15:03:35;17.15;;;7.32;;
7989;SDS011;4040;42.848;23.034;2022-10-31T15:09:27;17.63;;;6.22;;
7989;SDS011;4040;42.848;23.034;2022-10-31T15:15:18;43.67;;;14.35;;
7989;SDS011;4040;42.848;23.034;2022-10-31T15:21:10;34.72;;;7.50;;
7989;SDS011;4040;42.848;23.034;2022-10-31T15:27:02;24.02;;;9.02;;
7989;SDS011;4040;42.848;23.034;2022-10-31T15:32:52;32.40;;;8.32;;
7989;SDS011;4040;42.848;23.034;2022-10-31T15:38:42;41.75;;;11.95;;
7989;SDS011;4040;42.848;23.034;2022-10-31T15:48:53;31.58;;;9.65;;
7989;SDS011;4040;42.848;23.034;2022-10-31T15:54:45;38.42;;;12.93;;
7989;SDS011;4040;42.848;23.034;2022-10-31T16:00:37;30.88;;;11.82;;
7989;SDS011;4040;42.848;23.034;2022-10-31T16:06:26;28.38;;;14.10;;
7989;SDS011;4040;42.848;23.034;2022-10-31T16:12:16;26.88;;;15.32;;
7989;SDS011;4040;42.848;23.034;2022-10-31T16:18:05;25.90;;;11.52;;
7989;SDS011;4040;42.848;23.034;2022-10-31T16:24:00;12.50;;;8.73;;
7989;SDS011;4040;42.848;23.034;2022-10-31T16:29:52;17.23;;;9.57;;
7989;SDS011;4040;42.848;23.034;2022-10-31T16:35:43;16.27;;;7.80;;
7989;SDS011;4040;42.848;23.034;2022-10-31T16:41:31;19.77;;;10.23;;
7989;SDS011;4040;42.848;23.034;2022-10-31T16:51:48;16.40;;;8.82;;
7989;SDS011;4040;42.848;23.034;2022-10-31T16:57:37;21.15;;;9.55;;
7989;SDS011;4040;42.848;23.034;2022-10-31T17:03:26;22.08;;;12.25;;
7989;SDS011;4040;42.848;23.034;2022-10-31T17:09:16;20.30;;;11.80;;
7989;SDS011;4040;42.848;23.034;2022-10-31T17:15:05;15.90;;;9.10;;
7989;SDS011;4040;42.848;23.034;2022-10-31T17:21:02;27.10;;;16.83;;
7989;SDS011;4040;42.848;23.034;2022-10-31T17:26:54;18.85;;;11.98;;
7989;SDS011;4040;42.848;23.034;2022-10-31T17:32:43;20.20;;;11.85;;
7989;SDS011;4040;42.848;23.034;2022-10-31T17:38:32;24.48;;;14.85;;
7989;SDS011;4040;42.848;23.034;2022-10-31T17:44:23;26.75;;;16.40;;
7989;SDS011;4040;42.848;23.034;2022-10-31T17:54:33;23.55;;;14.48;;
7989;SDS011;4040;42.848;23.034;2022-10-31T18:00:23;25.65;;;14.35;;
7989;SDS011;4040;42.848;23.034;2022-10-31T18:06:12;32.40;;;18.10;;
7989;SDS011;4040;42.848;23.034;2022-10-31T18:12:02;33.90;;;19.55;;
7989;SDS011;4040;42.848;23.034;2022-10-31T18:17:53;33.28;;;16.70;;
7989;SDS011;4040;42.848;23.034;2022-10-31T18:23:42;30.80;;;17.48;;
7989;SDS011;4040;42.848;23.034;2022-10-31T18:29:30;31.70;;;17.83;;
7989;SDS011;4040;42.848;23.034;2022-10-31T18:35:21;36.90;;;17.85;;
7989;SDS011;4040;42.848;23.034;2022-10-31T18:41:10;43.67;;;22.27;;
7989;SDS011;4040;42.848;23.034;2022-10-31T18:46:59;35.45;;;19.10;;
7989;SDS011;4040;42.848;23.034;2022-10-31T18:57:11;28.92;;;16.02;;
7989;SDS011;4040;42.848;23.034;2022-10-31T19:02:59;16.80;;;10.35;;
7989;SDS011;4040;42.848;23.034;2022-10-31T19:08:48;15.45;;;10.07;;
7989;SDS011;4040;42.848;23.034;2022-10-31T19:14:39;12.97;;;7.93;;
7989;SDS011;4040;42.848;23.034;2022-10-31T19:20:27;10.17;;;7.70;;
7989;SDS011;4040;42.848;23.034;2022-10-31T19:26:16;20.60;;;12.47;;
7989;SDS011;4040;42.848;23.034;2022-10-31T19:32:06;17.33;;;12.30;;
7989;SDS011;4040;42.848;23.034;2022-10-31T19:37:55;31.17;;;15.80;;
7989;SDS011;4040;42.848;23.034;2022-10-31T19:43:44;27.17;;;16.03;;
7989;SDS011;4040;42.848;23.034;2022-10-31T19:49:35;29.83;;;15.13;;
7989;SDS011;4040;42.848;23.034;2022-10-31T19:59:45;14.27;;;9.27;;
7989;SDS011;4040;42.848;23.034;2022-10-31T20:05:39;15.37;;;8.77;;
7989;SDS011;4040;42.848;23.034;2022-10-31T20:11:28;12.33;;;9.37;;
7989;SDS011;4040;42.848;23.034;2022-10-31T20:17:17;11.47;;;8.93;;
7989;SDS011;4040;42.848;23.034;2022-10-31T20:23:08;10.47;;;7.77;;
7989;SDS011;4040;42.848;23.034;2022-10-31T20:28:57;14.87;;;7.70;;
7989;SDS011;4040;42.848;23.034;2022-10-31T20:34:47;12.37;;;8.27;;
7989;SDS011;4040;42.848;23.034;2022-10-31T20:40:37;21.17;;;10.10;;
7989;SDS011;4040;42.848;23.034;2022-10-31T20:46:26;11.50;;;8.13;;
7989;SDS011;4040;42.848;23.034;2022-10-31T20:52:14;21.60;;;10.50;;
7989;SDS011;4040;42.848;23.034;2022-10-31T21:02:27;16.67;;;9.60;;
7989;SDS011;4040;42.848;23.034;2022-10-31T21:08:15;11.87;;;8.67;;
7989;SDS011;4040;42.848;23.034;2022-10-31T21:14:04;14.43;;;9.43;;
7989;SDS011;4040;42.848;23.034;2022-10-31T21:19:54;14.13;;;8.07;;
7989;SDS011;4040;42.848;23.034;2022-10-31T21:25:42;19.60;;;9.10;;
7989;SDS011;4040;42.848;23.034;2022-10-31T21:31:31;12.23;;;8.47;;
7989;SDS011;4040;42.848;23.034;2022-10-31T21:37:23;13.47;;;8.77;;
7989;SDS011;4040;42.848;23.034;2022-10-31T21:43:12;10.33;;;8.13;;
7989;SDS011;4040;42.848;23.034;2022-10-31T21:49:00;14.50;;;9.70;;
7989;SDS011;4040;42.848;23.034;2022-10-31T21:54:51;13.57;;;8.17;;
7989;SDS011;4040;42.848;23.034;2022-10-31T22:05:01;12.37;;;8.57;;
7989;SDS011;4040;42.848;23.034;2022-10-31T22:10:52;11.90;;;8.53;;
7989;SDS011;4040;42.848;23.034;2022-10-31T22:16:41;10.90;;;7.73;;
7989;SDS011;4040;42.848;23.034;2022-10-31T22:22:30;14.83;;;8.63;;
7989;SDS011;4040;42.848;23.034;2022-10-31T22:28:20;16.77;;;11.37;;
7989;SDS011;4040;42.848;23.034;2022-10-31T22:34:09;17.30;;;10.30;;
7989;SDS011;4040;42.848;23.034;2022-10-31T22:39:58;16.83;;;10.27;;
7989;SDS011;4040;42.848;23.034;2022-10-31T22:45:53;18.50;;;11.70;;
7989;SDS011;4040;42.848;23.034;2022-10-31T22:51:48;16.93;;;11.57;;
7989;SDS011;4040;42.848;23.034;2022-10-31T22:57:38;19.10;;;10.73;;
7989;SDS011;4040;42.848;23.034;2022-10-31T23:08:33;21.17;;;11.97;;
7989;SDS011;4040;42.848;23.034;2022-10-31T23:14:23;14.53;;;9.37;;
7989;SDS011;4040;42.848;23.034;2022-10-31T23:20:11;13.13;;;8.23;;
7989;SDS011;4040;42.848;23.034;2022-10-31T23:26:02;16.87;;;8.73;;
7989;SDS011;4040;42.848;23.034;2022-10-31T23:32:09;12.57;;;9.60;;
7989;SDS011;4040;42.848;23.034;2022-10-31T23:37:59;9.13;;;7.23;;
7989;SDS011;4040;42.848;23.034;2022-10-31T23:43:50;11.80;;;8.17;;
7989;SDS011;4040;42.848;23.034;2022-10-31T23:49:38;11.33;;;8.37;;
7989;SDS011;4040;42.848;23.034;2022-10-31T23:55:27;11.97;;;8.57;;
